Station: Parafield

  Atmospheric Gas Attenuation - ITU Rec 676-11   --------------- db/100km ---------------
Date Time Temp RH % AH g/m3 Dew Point Wind Direction Speed kph Gust kph Barometer mB Rainfall Since 9am 24GHz 47GHz 76GHz 122GHz 134GHz 241GHz
15 00:20 12.8 87 9.75 10.7 9 11 1016 2.8 22.1 28.2 45.2 118.9 115.7 398.7
15 00:10 12.9 86 9.69 10.6 9 11 1016 2.8 22.0 28.1 44.9 118.0 114.7 395.3
15 00:00 13.1 84 9.59 10.5 9 9 1015.9 2.8 21.7 27.8 44.4 116.6 113.0 389.4
14 23:50 13.2 85 9.76 10.7 6 7 1015.8 2.8 22.1 28.1 45.0 118.3 115.2 397.1
14 23:40 13.1 86 9.81 10.8 6 6 1015.8 2.8 22.2 28.2 45.3 119.1 116.0 400.0
14 23:30 13.1 87 9.93 11 6 11 1015.8 2.8 22.5 28.4 45.8 120.4 117.7 405.9
14 23:20 13.2 88 10.1 11.3 6 7 1015.8 2.8 22.8 28.7 46.5 122.2 119.9 413.7
14 23:10 13.3 89 10.28 11.5 6 7 1015.7 2.8 23.2 29.0 47.2 124.1 122.3 422.0
14 23:00 13.4 89 10.35 11.6 7 9 1015.6 2.8 23.4 29.0 47.4 124.7 123.1 424.9
14 22:50 13.6 89 10.47 11.8 13 15 1015.6 2.8 23.6 29.2 47.8 125.8 124.5 429.7
14 22:40 13.6 91 10.71 12.2 13 15 1015.5 2.8 24.1 29.6 48.8 128.6 127.9 441.6
14 22:30 13.5 95 11.11 12.7 15 17 1015.5 2.8 25.0 30.3 50.7 133.4 133.8 462.3
14 22:20 12.7 95 10.58 11.9 9 9 1015.4 2.8 23.9 29.7 48.8 128.5 127.6 440.2
14 22:10 12.5 94 10.34 11.6 7 7 1015.3 2.8 23.4 29.3 47.9 126.0 124.4 429.3
14 22:00 13.1 95 10.84 12.3 6 6 1015.3 2.8 24.4 30.0 49.7 130.9 130.6 451.0
14 21:50 13.3 94 10.86 12.4 6 7 1015.3 2.8 24.5 30.0 49.7 130.8 130.6 450.8
14 21:40 13.6 94 11.06 12.7 6 6 1015.3 2.8 24.9 30.2 50.4 132.6 132.9 459.1
14 21:30 13.6 94 11.06 12.7 7 9 1015.2 2.8 24.9 30.2 50.4 132.6 132.9 459.1
14 21:20 13.9 94 11.27 13 7 7 1015.2 2.8 25.3 30.5 51.1 134.6 135.4 467.9
14 21:10 14 94 11.34 13.1 6 6 1015.1 2.8 25.5 30.6 51.3 135.2 136.3 470.8
14 21:00 14 95 11.46 13.2 0 0 1015.2 2.8 25.7 30.8 51.9 136.6 138.0 476.9
14 20:50 13.5 94 11 12.6 0 0 1015.2 2.8 24.8 30.1 50.2 132.1 132.2 456.7
14 20:40 13.8 94 11.2 12.9 7 7 1015.2 2.8 25.2 30.4 50.9 133.9 134.6 465.0
14 20:30 13.8 94 11.2 12.9 6 7 1015.2 2.6 25.2 30.4 50.9 133.9 134.6 465.0
14 20:20 13.6 94 11.06 12.7 6 6 1015.1 2.6 24.9 30.2 50.4 132.6 132.9 459.1
14 20:10 13.8 93 11.08 12.7 6 7 1014.9 2.6 24.9 30.2 50.3 132.5 132.8 458.8
14 20:00 14.2 93 11.36 13.1 6 6 1015 2.6 25.5 30.5 51.3 135.1 136.2 470.6
14 19:50 14.2 93 11.36 13.1 7 7 1015 2.6 25.5 30.5 51.3 135.1 136.2 470.6
14 19:40 14.3 93 11.43 13.2 9 9 1014.9 2.6 25.6 30.6 51.5 135.7 137.0 473.4
14 19:30 14.4 92 11.37 13.1 0 0 1014.9 2.6 25.5 30.5 51.2 134.8 135.9 469.8
14 19:20 14.2 92 11.23 12.9 0 0 1014.8 2.6 25.2 30.3 50.7 133.5 134.3 463.9
14 19:10 14.2 90 10.99 12.6 0 0 1014.7 2.6 24.7 29.9 49.6 130.7 130.8 451.9
14 19:00 14.6 90 11.26 13 0 0 1014.6 2.6 25.2 30.2 50.6 133.1 134.0 462.9
14 18:50 14.8 89 11.27 13 0 0 1014.5 2.6 25.3 30.1 50.5 132.9 133.8 462.2
14 18:40 14.8 89 11.27 13 0 0 1014.5 2.6 25.3 30.1 50.5 132.9 133.8 462.2
14 18:30 14.9 89 11.34 13.1 4 6 1014.4 2.6 25.4 30.2 50.7 133.5 134.6 465.1
14 18:20 15 89 11.41 13.2 6 7 1014.3 2.6 25.5 30.3 50.9 134.2 135.4 467.9
14 18:10 15 88 11.28 13 6 6 1014.3 2.6 25.3 30.1 50.4 132.7 133.5 461.4
14 18:00 15.1 87 11.22 13 4 6 1014.1 2.6 25.1 29.9 50.0 131.8 132.5 457.8
14 17:50 15.2 87 11.29 13.1 6 7 1013.9 2.6 25.3 30.0 50.3 132.4 133.3 460.6
14 17:40 15.2 87 11.29 13.1 6 7 1013.8 2.6 25.3 30.0 50.3 132.4 133.3 460.6
14 17:30 15.2 87 11.29 13.1 7 7 1013.8 2.6 25.3 30.0 50.3 132.4 133.3 460.6
14 17:20 15.2 86 11.16 12.9 7 9 1013.7 2.6 25.0 29.8 49.7 130.9 131.4 454.1
14 17:10 15.5 85 11.24 13 7 9 1013.6 2.6 25.2 29.8 49.8 131.3 132.0 456.2
14 17:00 15.9 83 11.24 13 7 9 1013.6 2.6 25.1 29.7 49.6 130.6 131.3 453.9
14 16:50 15.8 83 11.17 12.9 11 11 1013.5 2.6 25.0 29.6 49.3 129.9 130.5 451.0
14 16:40 15.9 83 11.24 13 11 13 1013.5 2.6 25.1 29.7 49.6 130.6 131.3 453.8
14 16:30 15.8 82 11.04 12.7 15 20 1013.4 2.6 24.7 29.3 48.8 128.4 128.7 444.6
14 16:20 16.1 81 11.1 12.8 13 15 1013.3 2.6 24.8 29.3 48.8 128.6 129.0 445.8
14 16:10 16.2 81 11.17 12.9 15 17 1013.3 2.6 25.0 29.4 49.1 129.2 129.8 448.6
14 16:00 16.3 81 11.24 13 15 17 1013.2 2.6 25.1 29.5 49.3 129.9 130.6 451.4
14 15:50 16.2 80 11.03 12.7 20 24 1013 2.6 24.7 29.2 48.5 127.6 127.8 441.7
14 15:40 16.2 81 11.17 12.9 20 24 1013 2.6 25.0 29.4 49.1 129.2 129.8 448.5
14 15:30 16.4 83 11.58 13.5 13 15 1012.9 2.6 25.8 30.0 50.7 133.5 135.2 467.4
14 15:20 15.7 84 11.24 13 19 20 1012.9 2.6 25.1 29.7 49.7 130.8 131.6 454.8
14 15:10 16 82 11.17 12.9 15 17 1012.9 2.6 25.0 29.5 49.2 129.5 130.1 449.6
14 15:00 16.6 82 11.58 13.5 20 22 1012.7 2.6 25.8 30.0 50.5 133.2 134.8 466.1
14 14:50 16.6 83 11.72 13.7 26 28 1012.7 2.6 26.1 30.2 51.1 134.8 136.8 473.0
14 14:40 16.7 86 12.22 14.3 19 22 1012.6 2.6 27.2 31.0 53.3 140.4 143.7 497.2
14 14:30 16.9 84 12.08 14.2 20 24 1012.4 2.6 26.9 30.7 52.5 138.4 141.3 488.8
14 14:20 17.7 90 13.58 16 22 24 1012.3 2.6 30.0 33.1 58.6 154.5 161.4 559.2
14 14:10 16.7 86 12.22 14.3 22 26 1012.3 2.6 27.2 31.0 53.2 140.3 143.7 497.1
14 14:00 17 85 12.3 14.5 24 30 1012.3 2.6 27.3 31.1 53.4 140.7 144.2 499.1
14 13:50 16.8 88 12.58 14.8 19 22 1012.3 2.6 27.9 31.6 54.7 144.4 148.7 514.5
14 13:40 16.8 89 12.72 15 19 22 1012.4 2.6 28.2 31.9 55.4 146.0 150.7 521.7
14 13:30 16.5 91 12.78 15 19 24 1012.5 2.6 28.4 32.1 55.9 147.3 152.2 526.8
14 13:20 16.1 91 12.47 14.6 20 22 1012.6 2.6 27.8 31.7 54.8 144.4 148.5 513.8
14 13:10 15.9 92 12.46 14.6 22 26 1012.7 2.6 27.7 31.8 54.9 144.7 148.7 514.6
14 13:00 15.7 93 12.44 14.6 20 28 1012.7 2.6 27.7 31.8 54.9 144.8 148.8 515.0
14 12:50 15.4 93 12.22 14.3 17 26 1012.8 2.6 27.3 31.5 54.2 142.8 146.2 505.8
14 12:40 15.3 93 12.14 14.2 17 19 1013 2.6 27.1 31.4 53.9 142.0 145.3 502.4
14 12:30 15.1 91 11.74 13.6 20 32 1013.2 2.4 26.3 30.8 52.3 137.7 139.8 483.5
14 12:20 15.5 90 11.9 13.9 22 28 1013.1 1.4 26.6 30.9 52.7 138.9 141.4 489.0
14 12:10 15.3 91 11.88 13.8 20 28 1013.2 1.4 26.5 31.0 52.7 139.0 141.5 489.3
14 12:00 15.2 91 11.81 13.7 17 22 1013.4 1.4 26.4 30.9 52.5 138.4 140.7 486.5
14 11:50 15.1 92 11.87 13.8 17 19 1013.4 1.4 26.5 31.0 52.8 139.3 141.7 490.1
14 11:40 15.4 92 12.09 14.1 17 22 1013.5 1.2 27.0 31.3 53.6 141.3 144.4 499.4
14 11:30 15 93 11.93 13.9 13 15 1013.6 1.2 26.7 31.2 53.2 140.2 142.8 493.9
14 11:20 14.5 94 11.69 13.5 17 20 1013.7 1.2 26.2 30.9 52.5 138.3 140.3 484.9
14 11:10 14.2 94 11.48 13.2 19 20 1013.9 1.2 25.7 30.7 51.8 136.3 137.8 476.2
14 11:00 14.1 93 11.29 13 19 20 1013.9 1 25.3 30.4 51.0 134.3 135.2 467.2
14 10:50 14.2 91 11.11 12.8 22 24 1014 0.6 25.0 30.0 50.1 132.0 132.5 457.6
14 10:40 14.4 90 11.13 12.8 22 26 1014 0.2 25.0 30.0 50.1 131.9 132.4 457.4
14 10:30 14.6 88 11.01 12.6 20 22 1014.1 0 24.7 29.7 49.4 130.2 130.4 450.3
14 10:20 14.5 88 10.95 12.5 20 22 1014.2 0 24.6 29.7 49.3 129.7 129.7 447.9
14 10:10 14.2 89 10.87 12.4 19 20 1014.3 0 24.4 29.6 49.1 129.3 129.1 445.7
14 10:00 14 91 10.98 12.6 17 22 1014.4 0 24.7 29.9 49.7 130.9 131.0 452.4
14 09:50 13.9 90 10.79 12.3 17 19 1014.3 0 24.3 29.6 48.9 128.8 128.4 443.5
14 09:40 14.1 87 10.56 12 15 17 1014.4 0 23.8 29.1 47.8 125.9 124.8 431.0
14 09:30 14.1 86 10.44 11.8 15 15 1014.4 0 23.5 28.9 47.3 124.5 123.2 425.1
14 09:20 14.1 85 10.32 11.6 17 24 1014.4 0 23.3 28.7 46.8 123.1 121.5 419.2
14 09:10 14.2 85 10.38 11.7 19 20 1014.4 0 23.4 28.8 47.0 123.7 122.2 421.6
14 09:00 14 85 10.25 11.5 17 20 1014.4 0 23.1 28.6 46.6 122.5 120.7 416.3
14 08:50 14 84 10.13 11.3 19 20 1014.3 11.2 22.9 28.4 46.1 121.1 119.0 410.4
14 08:40 14 84 10.13 11.3 19 20 1014.3 11.2 22.9 28.4 46.1 121.1 119.0 410.4
14 08:30 14 85 10.25 11.5 17 17 1014.3 11.2 23.1 28.6 46.6 122.5 120.6 416.3
14 08:20 13.9 86 10.31 11.6 19 20 1014.3 11.2 23.2 28.8 46.9 123.3 121.6 419.8
14 08:10 14 85 10.25 11.5 19 22 1014.2 11.2 23.1 28.6 46.6 122.5 120.6 416.3
14 08:00 13.9 86 10.31 11.6 22 28 1014.1 11.2 23.2 28.7 46.9 123.3 121.6 419.7
14 07:50 13.7 88 10.42 11.7 17 20 1014.2 11.2 23.5 29.0 47.5 124.9 123.5 426.2

Last Refresh: 15-Jun-2024 00:34:35

Bureau of Meteorology